Time;durP1;ratioP1;P1;durP2;ratioP2;P2;SDS_P1;SDS_P2;PMS_P1;PMS_P2;Temp;Humidity;BMP_temperature;BMP_pressure;BME280_temperature;BME280_humidity;BME280_pressure;Samples;Min_cycle;Max_cycle;Signal;HPM_P1;HPM_P2
2023/01/06 00:00:08;;;;;;;58.72;27.77;;;10.10;99.90;;;;;;5003465;28;20033;-67
2023/01/06 00:02:34;;;;;;;64.65;30.08;;;9.70;99.90;;;;;;5019822;28;20037;-64
2023/01/06 00:04:59;;;;;;;57.00;28.40;;;10.10;99.90;;;;;;5019506;28;20246;-66
2023/01/06 00:07:25;;;;;;;59.28;27.55;;;9.70;99.90;;;;;;4986962;28;20104;-67
2023/01/06 00:09:51;;;;;;;58.30;27.83;;;9.80;99.90;;;;;;5018822;28;20464;-66
2023/01/06 00:12:16;;;;;;;58.30;26.58;;;10.10;99.90;;;;;;5016224;28;20053;-65
2023/01/06 00:14:43;;;;;;;54.65;25.23;;;9.70;99.90;;;;;;4998823;28;20045;-66
2023/01/06 00:17:09;;;;;;;54.38;24.95;;;9.70;99.90;;;;;;5016749;28;20399;-65
2023/01/06 00:19:35;;;;;;;46.47;24.50;;;9.80;99.90;;;;;;5016665;28;20045;-66
2023/01/06 00:22:00;;;;;;;52.22;25.77;;;10.10;99.90;;;;;;4983111;28;20557;-67
2023/01/06 00:24:26;;;;;;;54.70;27.17;;;9.70;99.90;;;;;;5016144;28;20037;-65
2023/01/06 00:26:52;;;;;;;50.38;24.98;;;10.10;99.90;;;;;;4984994;28;20033;-64
2023/01/06 00:29:18;;;;;;;54.70;26.90;;;10.20;99.90;;;;;;5000292;28;20346;-64
2023/01/06 00:31:43;;;;;;;53.90;25.48;;;9.80;99.90;;;;;;4999998;28;20053;-65
2023/01/06 00:34:10;;;;;;;46.85;24.17;;;10.10;99.90;;;;;;5014274;28;20061;-66
2023/01/06 00:36:36;;;;;;;47.08;23.20;;;9.90;99.90;;;;;;4998911;28;20251;-65
2023/01/06 00:39:02;;;;;;;44.67;20.90;;;10.10;99.90;;;;;;4989790;28;20091;-66
2023/01/06 00:44:12;;;;;;;48.70;20.45;;;9.80;99.90;;;;;;5015200;28;20049;-65
2023/01/06 00:46:37;;;;;;;40.75;18.67;;;10.20;99.90;;;;;;5015566;28;20068;-64
2023/01/06 00:49:04;;;;;;;35.25;14.60;;;10.20;99.90;;;;;;4998716;28;20078;-65
2023/01/06 00:51:30;;;;;;;41.95;16.20;;;9.90;99.90;;;;;;5015279;28;20507;-65
2023/01/06 00:53:58;;;;;;;45.45;15.60;;;10.20;99.90;;;;;;5016495;28;20214;-64
2023/01/06 00:56:24;;;;;;;38.97;14.20;;;9.90;99.90;;;;;;5016338;28;20046;-65
2023/01/06 00:58:50;;;;;;;34.90;13.15;;;10.10;99.90;;;;;;5014762;28;20501;-66
2023/01/06 01:01:16;;;;;;;33.88;12.70;;;9.90;99.90;;;;;;5015016;28;20052;-65
2023/01/06 01:03:42;;;;;;;38.88;12.10;;;9.90;99.90;;;;;;5015384;28;20045;-65
2023/01/06 01:06:08;;;;;;;41.70;11.48;;;9.90;99.90;;;;;;4997653;28;20041;-66
2023/01/06 01:08:34;;;;;;;37.47;11.23;;;10.30;99.90;;;;;;5015035;28;20060;-66
2023/01/06 01:11:06;;;;;;;29.27;10.50;;;10.00;99.90;;;;;;5016449;28;20045;-66
2023/01/06 01:13:32;;;;;;;35.55;11.43;;;10.00;99.90;;;;;;5036628;28;20045;-64
2023/01/06 01:16:06;;;;;;;47.00;13.38;;;10.40;99.90;;;;;;5018311;28;20056;-67
2023/01/06 01:18:33;;;;;;;35.85;11.00;;;10.30;99.90;;;;;;5003473;28;20526;-65
2023/01/06 01:20:58;;;;;;;34.83;10.85;;;10.30;99.90;;;;;;5001132;28;20285;-65
2023/01/06 01:23:24;;;;;;;40.75;10.65;;;10.20;99.90;;;;;;5002581;28;20064;-65
2023/01/06 01:25:54;;;;;;;30.70;10.82;;;10.40;99.90;;;;;;4993825;28;20041;-66
2023/01/06 01:28:20;;;;;;;30.77;11.80;;;10.00;99.90;;;;;;5005313;28;20086;-66
2023/01/06 01:30:46;;;;;;;38.28;10.85;;;10.00;99.90;;;;;;4985035;28;20136;-66
2023/01/06 01:33:11;;;;;;;31.50;10.60;;;10.30;99.90;;;;;;5002894;28;20076;-65
2023/01/06 01:35:37;;;;;;;29.75;11.38;;;10.10;99.90;;;;;;5017093;28;20098;-64
2023/01/06 01:38:03;;;;;;;35.78;10.10;;;10.00;99.90;;;;;;4995337;28;20037;-64
2023/01/06 01:40:28;;;;;;;29.88;10.82;;;10.30;99.90;;;;;;5018224;28;20037;-64
2023/01/06 01:42:54;;;;;;;34.83;10.80;;;10.30;99.90;;;;;;5036067;28;20033;-64
2023/01/06 01:45:25;;;;;;;30.40;9.43;;;10.10;99.90;;;;;;5018372;28;20037;-64
2023/01/06 01:48:16;;;;;;;27.08;8.15;;;10.30;99.90;;;;;;5036107;28;20098;-64
2023/01/06 01:50:48;;;;;;;19.38;6.30;;;10.10;99.90;;;;;;5018799;28;20111;-64
2023/01/06 01:53:27;;;;;;;22.23;5.13;;;10.20;99.90;;;;;;5039844;28;20049;-65
2023/01/06 01:55:57;;;;;;;22.83;5.90;;;10.40;99.90;;;;;;5004311;28;20443;-64
2023/01/06 01:58:30;;;;;;;12.90;3.97;;;10.30;99.90;;;;;;5022897;28;20033;-65
2023/01/06 02:00:56;;;;;;;15.68;4.30;;;10.40;99.90;;;;;;5020552;28;20081;-65
2023/01/06 02:03:23;;;;;;;16.75;3.80;;;10.30;99.90;;;;;;5003787;28;20173;-63
2023/01/06 02:05:53;;;;;;;19.90;3.88;;;10.30;99.90;;;;;;5006095;28;20508;-64
2023/01/06 02:08:31;;;;;;;16.38;4.47;;;10.30;99.90;;;;;;5004943;28;20504;-64
2023/01/06 02:10:57;;;;;;;17.08;4.93;;;10.20;99.90;;;;;;5021242;28;20037;-63
2023/01/06 02:13:23;;;;;;;19.88;5.60;;;10.10;99.90;;;;;;4990305;28;20423;-63
2023/01/06 02:15:53;;;;;;;19.92;5.15;;;10.30;99.90;;;;;;5039356;28;20179;-64
2023/01/06 02:18:28;;;;;;;17.42;5.30;;;10.20;99.90;;;;;;5037907;28;20212;-66
2023/01/06 02:21:05;;;;;;;16.63;4.78;;;10.30;99.90;;;;;;5021034;28;20282;-65
2023/01/06 02:23:56;;;;;;;16.45;3.95;;;10.30;99.90;;;;;;5038431;28;20804;-63
2023/01/06 02:27:01;;;;;;;17.27;4.75;;;10.20;99.90;;;;;;5039586;28;20055;-64
2023/01/06 02:29:42;;;;;;;14.88;3.92;;;10.30;99.90;;;;;;5030079;28;20036;-64
2023/01/06 02:32:13;;;;;;;14.90;4.10;;;10.30;99.90;;;;;;5040523;28;20042;-63
2023/01/06 02:34:53;;;;;;;16.52;4.00;;;10.20;99.90;;;;;;5022480;28;20619;-63
2023/01/06 02:37:24;;;;;;;13.07;4.10;;;10.30;99.90;;;;;;5021715;28;20747;-62
2023/01/06 02:40:11;;;;;;;14.43;4.43;;;10.10;99.90;;;;;;5039110;28;20148;-65
2023/01/06 02:43:03;;;;;;;12.85;4.50;;;10.10;99.90;;;;;;5022074;28;20044;-62
2023/01/06 02:45:59;;;;;;;13.93;4.82;;;10.20;99.90;;;;;;5020127;28;20044;-62
2023/01/06 02:48:55;;;;;;;16.30;5.05;;;10.30;99.90;;;;;;5021569;28;20060;-64
2023/01/06 02:51:30;;;;;;;14.45;4.88;;;10.40;99.90;;;;;;5039601;28;20073;-65
2023/01/06 02:54:26;;;;;;;14.23;5.53;;;10.20;99.90;;;;;;5038979;28;20045;-63
2023/01/06 02:57:26;;;;;;;14.30;5.10;;;10.20;99.90;;;;;;5038852;28;20036;-63
2023/01/06 03:00:08;;;;;;;14.15;5.55;;;10.30;99.90;;;;;;5020110;28;20056;-63
2023/01/06 03:02:38;;;;;;;14.38;5.50;;;10.40;99.90;;;;;;5021619;28;20036;-63
2023/01/06 03:05:06;;;;;;;12.57;5.15;;;10.10;99.90;;;;;;5037802;28;20040;-64
2023/01/06 03:07:32;;;;;;;11.93;4.82;;;10.30;99.90;;;;;;5039239;28;20068;-65
2023/01/06 03:10:00;;;;;;;13.10;4.97;;;10.20;99.90;;;;;;5021421;28;20380;-63
2023/01/06 03:12:32;;;;;;;12.35;4.55;;;10.30;99.90;;;;;;5020846;28;20056;-63
2023/01/06 03:14:58;;;;;;;10.25;4.35;;;10.20;99.90;;;;;;5039354;28;20148;-64
2023/01/06 03:17:24;;;;;;;9.85;4.20;;;10.20;99.90;;;;;;5004033;28;20084;-64
2023/01/06 03:19:51;;;;;;;12.45;4.70;;;10.30;99.90;;;;;;5038803;28;20044;-62
2023/01/06 03:22:16;;;;;;;11.63;4.32;;;10.40;99.90;;;;;;5037624;28;20041;-63
2023/01/06 03:24:44;;;;;;;7.20;3.33;;;10.20;99.90;;;;;;5022197;28;20306;-64
2023/01/06 03:27:10;;;;;;;9.13;4.00;;;10.30;99.90;;;;;;5005340;28;20495;-63
2023/01/06 03:29:37;;;;;;;11.07;4.63;;;10.30;99.90;;;;;;5020628;28;20102;-64
2023/01/06 03:32:36;;;;;;;12.38;4.28;;;10.40;99.90;;;;;;5038382;28;20144;-64
2023/01/06 03:35:11;;;;;;;10.23;4.10;;;10.20;99.90;;;;;;5015013;28;20144;-62
2023/01/06 03:38:06;;;;;;;10.30;3.67;;;10.30;99.90;;;;;;5012050;28;20033;-63
2023/01/06 03:40:50;;;;;;;8.77;3.53;;;10.10;99.90;;;;;;5010476;28;20289;-64
2023/01/06 03:43:15;;;;;;;9.20;3.63;;;10.30;99.90;;;;;;5019700;28;20348;-63
2023/01/06 03:45:49;;;;;;;12.00;3.72;;;10.20;99.90;;;;;;5026489;28;20132;-64
2023/01/06 03:48:27;;;;;;;8.57;3.28;;;10.30;99.90;;;;;;5028247;28;20069;-64
2023/01/06 03:51:14;;;;;;;10.05;3.90;;;10.10;99.90;;;;;;5038267;28;20045;-63
2023/01/06 03:54:16;;;;;;;10.50;3.90;;;10.20;99.90;;;;;;5037534;28;20529;-64
2023/01/06 03:56:48;;;;;;;7.63;3.55;;;10.20;99.90;;;;;;4985926;28;20301;-65
2023/01/06 03:59:18;;;;;;;5.88;3.42;;;10.20;99.90;;;;;;5004261;28;20037;-65
2023/01/06 04:01:44;;;;;;;11.13;4.22;;;10.30;99.90;;;;;;5020720;28;20106;-62
2023/01/06 04:04:10;;;;;;;8.02;3.88;;;10.30;99.90;;;;;;4986768;28;20037;-63
2023/01/06 04:06:36;;;;;;;9.95;4.10;;;10.10;99.90;;;;;;5003867;28;20056;-64
2023/01/06 04:09:02;;;;;;;7.95;3.47;;;10.10;99.90;;;;;;5008644;28;20211;-64
2023/01/06 04:14:12;;;;;;;6.60;3.17;;;10.10;99.90;;;;;;5020031;28;20047;-64
2023/01/06 04:16:37;;;;;;;7.15;3.42;;;10.30;99.90;;;;;;5002063;28;20498;-64
2023/01/06 04:19:03;;;;;;;7.85;3.72;;;10.30;99.90;;;;;;5037424;28;20052;-64
2023/01/06 04:21:29;;;;;;;8.27;3.63;;;10.30;99.90;;;;;;5003094;28;20502;-65
2023/01/06 04:23:54;;;;;;;8.55;4.25;;;10.20;99.90;;;;;;5003606;28;20037;-64
2023/01/06 04:26:20;;;;;;;7.03;4.20;;;10.30;99.90;;;;;;5020040;28;20070;-64
2023/01/06 04:28:46;;;;;;;8.38;4.38;;;10.20;99.90;;;;;;5019769;28;20048;-64
2023/01/06 04:31:12;;;;;;;9.75;3.95;;;10.20;99.90;;;;;;5019265;28;20095;-64
2023/01/06 04:33:37;;;;;;;10.82;5.13;;;10.30;99.90;;;;;;5002935;28;20780;-64
2023/01/06 04:36:03;;;;;;;7.68;4.72;;;10.20;99.90;;;;;;5037854;28;20289;-64
2023/01/06 04:38:32;;;;;;;10.82;5.30;;;10.30;99.90;;;;;;5037952;28;20094;-63
2023/01/06 04:40:57;;;;;;;8.32;4.93;;;10.30;99.90;;;;;;5021576;28;20344;-66
2023/01/06 04:43:23;;;;;;;7.82;4.97;;;10.30;99.90;;;;;;5020261;28;20417;-63
2023/01/06 04:45:49;;;;;;;9.18;5.45;;;10.20;99.90;;;;;;5038896;28;20430;-63
2023/01/06 04:48:15;;;;;;;7.25;4.60;;;10.20;99.90;;;;;;5003706;28;20045;-63
2023/01/06 04:50:41;;;;;;;7.60;4.50;;;10.30;99.90;;;;;;5020567;28;20648;-63
2023/01/06 04:53:08;;;;;;;7.88;4.60;;;10.30;99.90;;;;;;5037447;28;20044;-64
2023/01/06 04:55:40;;;;;;;8.48;4.15;;;10.30;99.90;;;;;;5014226;28;20365;-64
2023/01/06 04:58:07;;;;;;;8.55;4.20;;;10.30;99.90;;;;;;5020044;28;20522;-65
2023/01/06 05:00:32;;;;;;;6.85;3.72;;;10.20;99.90;;;;;;5018703;28;20497;-64
2023/01/06 05:02:58;;;;;;;7.68;4.45;;;10.30;99.90;;;;;;5003118;28;20045;-64
2023/01/06 05:05:24;;;;;;;7.22;4.07;;;10.20;99.90;;;;;;5003530;28;20406;-66
2023/01/06 05:07:53;;;;;;;5.07;4.18;;;10.30;99.90;;;;;;5010126;28;20037;-66
2023/01/06 05:10:19;;;;;;;5.20;3.22;;;10.20;99.90;;;;;;5036964;28;20163;-65
2023/01/06 05:12:44;;;;;;;5.75;3.80;;;10.20;99.90;;;;;;4987209;28;20049;-65
2023/01/06 05:15:11;;;;;;;8.45;3.10;;;10.00;99.90;;;;;;5019168;28;20099;-65
2023/01/06 05:17:36;;;;;;;5.57;2.85;;;10.10;99.90;;;;;;5026474;28;20102;-66
2023/01/06 05:20:03;;;;;;;9.32;2.58;;;10.10;99.90;;;;;;5036542;28;20445;-65
2023/01/06 05:22:29;;;;;;;4.63;2.45;;;10.10;99.90;;;;;;5020334;28;20041;-64
2023/01/06 05:24:54;;;;;;;4.47;2.13;;;10.20;99.90;;;;;;5019081;28;20375;-64
2023/01/06 05:27:20;;;;;;;5.00;2.30;;;10.20;99.90;;;;;;5017576;28;20379;-63
2023/01/06 05:29:46;;;;;;;5.53;2.13;;;10.20;99.90;;;;;;5036485;28;20094;-63
2023/01/06 05:32:11;;;;;;;3.10;1.73;;;10.30;99.90;;;;;;5035853;28;20084;-64
2023/01/06 05:34:37;;;;;;;2.85;1.40;;;10.30;97.10;;;;;;5001571;28;20044;-64
2023/01/06 05:37:03;;;;;;;4.53;1.55;;;10.30;42.40;;;;;;5018083;28;20250;-64
2023/01/06 05:39:28;;;;;;;4.40;1.40;;;10.30;46.90;;;;;;5035494;28;20530;-64
2023/01/06 05:41:54;;;;;;;3.60;1.52;;;10.40;1.00;;;;;;5002315;28;20036;-64
2023/01/06 05:44:20;;;;;;;3.47;1.33;;;10.40;1.00;;;;;;5019094;28;20045;-64
2023/01/06 05:46:45;;;;;;;3.72;0.95;;;10.40;6.50;;;;;;5041333;28;20095;-64
2023/01/06 05:49:11;;;;;;;4.85;1.52;;;10.50;14.40;;;;;;5017454;28;20041;-64
2023/01/06 05:51:37;;;;;;;4.90;1.70;;;10.50;7.90;;;;;;5019466;28;20041;-64
2023/01/06 05:54:07;;;;;;;4.20;1.75;;;10.40;1.00;;;;;;5019172;28;20044;-65
2023/01/06 05:56:33;;;;;;;4.18;2.33;;;10.50;1.00;;;;;;5035977;28;20128;-64
2023/01/06 05:58:59;;;;;;;5.30;2.88;;;10.40;1.00;;;;;;5018039;28;21337;-65
2023/01/06 06:01:27;;;;;;;5.30;3.05;;;10.50;1.00;;;;;;5036871;28;20592;-65
2023/01/06 06:03:54;;;;;;;4.90;3.15;;;10.40;1.00;;;;;;5017891;28;20419;-65
2023/01/06 06:06:22;;;;;;;5.68;4.15;;;10.40;1.00;;;;;;5019105;28;20049;-63
2023/01/06 06:08:48;;;;;;;7.47;4.45;;;10.30;13.80;;;;;;5035936;28;20068;-65
2023/01/06 06:11:15;;;;;;;7.97;5.18;;;10.30;3.70;;;;;;5037269;28;20076;-64
2023/01/06 06:13:50;;;;;;;8.73;6.05;;;10.30;1.00;;;;;;5024240;28;20045;-64
2023/01/06 06:16:18;;;;;;;6.50;5.85;;;10.30;92.00;;;;;;5024330;28;20398;-65
2023/01/06 06:18:51;;;;;;;7.03;6.32;;;10.20;99.90;;;;;;5009294;28;20463;-66
2023/01/06 06:21:20;;;;;;;8.73;6.93;;;10.00;99.90;;;;;;5017932;28;20446;-64
2023/01/06 06:23:46;;;;;;;8.18;7.38;;;9.90;99.90;;;;;;5017857;28;20041;-64
2023/01/06 06:26:12;;;;;;;9.20;7.38;;;9.90;99.90;;;;;;4984448;28;20857;-65
2023/01/06 06:28:38;;;;;;;9.77;7.90;;;9.80;99.90;;;;;;5019883;28;20049;-65
2023/01/06 06:31:12;;;;;;;11.32;10.23;;;9.70;99.90;;;;;;5017745;28;20033;-64
2023/01/06 06:33:38;;;;;;;11.00;9.75;;;9.80;99.90;;;;;;5038162;28;20532;-63
2023/01/06 06:36:05;;;;;;;11.10;9.98;;;9.70;99.90;;;;;;5037920;28;20120;-63
2023/01/06 06:38:30;;;;;;;11.48;10.32;;;9.60;99.90;;;;;;5022345;28;20041;-63
2023/01/06 06:40:56;;;;;;;10.43;9.32;;;9.50;99.90;;;;;;5006471;28;20406;-64
2023/01/06 06:43:22;;;;;;;7.10;6.28;;;9.60;99.90;;;;;;5008467;28;20226;-66
2023/01/06 06:45:48;;;;;;;8.73;8.00;;;9.60;99.90;;;;;;5024482;28;20045;-66
2023/01/06 06:48:15;;;;;;;9.48;8.60;;;9.60;99.90;;;;;;5024313;28;20037;-65
2023/01/06 06:50:41;;;;;;;10.80;9.68;;;9.60;99.90;;;;;;5007028;28;20316;-66
2023/01/06 06:53:06;;;;;;;12.52;9.65;;;9.80;99.90;;;;;;5008435;28;20045;-63
2023/01/06 06:55:32;;;;;;;10.05;8.98;;;9.50;99.90;;;;;;5021819;28;20033;-63
2023/01/06 06:57:58;;;;;;;9.55;8.75;;;9.60;99.90;;;;;;5038500;28;20033;-63
2023/01/06 07:00:24;;;;;;;8.60;7.78;;;9.90;99.90;;;;;;5022014;28;20505;-63
2023/01/06 07:02:50;;;;;;;9.23;8.27;;;9.70;99.90;;;;;;5022345;28;20036;-66
2023/01/06 07:05:17;;;;;;;9.82;9.00;;;9.50;99.90;;;;;;5022020;28;20055;-66
2023/01/06 07:07:43;;;;;;;11.20;8.85;;;9.70;99.90;;;;;;5008541;28;20471;-66
2023/01/06 07:10:16;;;;;;;10.85;9.75;;;9.50;99.90;;;;;;5022414;28;20270;-65
2023/01/06 07:12:42;;;;;;;11.05;9.95;;;9.50;99.90;;;;;;5021639;28;20075;-65
2023/01/06 07:15:08;;;;;;;10.60;9.60;;;9.80;99.90;;;;;;5022392;28;20315;-64
2023/01/06 07:17:34;;;;;;;11.70;10.50;;;9.70;99.90;;;;;;5041483;28;20055;-64
2023/01/06 07:20:00;;;;;;;13.20;12.05;;;9.80;99.90;;;;;;4998945;28;20033;-66
2023/01/06 07:22:25;;;;;;;12.85;10.95;;;9.70;99.90;;;;;;5040736;28;20036;-65
2023/01/06 07:24:51;;;;;;;14.73;13.27;;;9.70;99.90;;;;;;5040491;28;20660;-64
2023/01/06 07:27:17;;;;;;;15.95;14.35;;;9.40;99.90;;;;;;5005559;28;20498;-66
2023/01/06 07:29:43;;;;;;;15.23;13.80;;;9.80;99.90;;;;;;5022665;28;20048;-66
2023/01/06 07:32:08;;;;;;;15.38;13.52;;;9.80;99.90;;;;;;5022501;28;20041;-64
2023/01/06 07:34:34;;;;;;;13.02;11.90;;;9.70;99.90;;;;;;4993357;28;20561;-63
2023/01/06 07:37:00;;;;;;;11.57;10.40;;;9.40;99.90;;;;;;5044121;28;20130;-64
2023/01/06 07:39:25;;;;;;;12.15;11.00;;;9.50;99.90;;;;;;5026301;28;20076;-64
2023/01/06 07:41:51;;;;;;;8.57;7.72;;;9.80;99.90;;;;;;5009409;28;20041;-63
2023/01/06 07:44:17;;;;;;;7.53;5.90;;;9.40;99.90;;;;;;5026879;28;20045;-66
2023/01/06 07:46:43;;;;;;;6.60;5.88;;;9.30;99.90;;;;;;5024438;28;20053;-64
2023/01/06 07:49:08;;;;;;;6.70;5.00;;;9.80;99.90;;;;;;5024186;28;20124;-65
2023/01/06 07:51:34;;;;;;;3.90;3.33;;;9.60;99.90;;;;;;5043442;28;20041;-65
2023/01/06 07:54:00;;;;;;;5.05;3.00;;;9.80;99.90;;;;;;5039374;28;20081;-64
2023/01/06 07:56:26;;;;;;;3.50;3.20;;;9.70;99.90;;;;;;5039503;28;20037;-64
2023/01/06 07:58:53;;;;;;;2.72;1.60;;;9.80;99.90;;;;;;5011481;28;20072;-62
2023/01/06 08:01:19;;;;;;;1.70;0.95;;;9.60;99.90;;;;;;5042793;28;20057;-63
2023/01/06 08:03:45;;;;;;;3.92;0.73;;;9.60;99.90;;;;;;5007985;28;20047;-64
2023/01/06 08:06:11;;;;;;;3.95;0.95;;;9.70;99.90;;;;;;5023159;28;20041;-64
2023/01/06 08:08:39;;;;;;;6.15;0.70;;;9.50;99.90;;;;;;5004040;28;20131;-63
2023/01/06 08:11:06;;;;;;;5.15;0.80;;;9.80;99.90;;;;;;5039990;28;20033;-64
2023/01/06 08:13:32;;;;;;;5.80;0.85;;;9.60;99.90;;;;;;5039281;28;20068;-64
2023/01/06 08:16:02;;;;;;;6.85;1.10;;;9.60;99.90;;;;;;5021783;28;20045;-64
2023/01/06 08:18:28;;;;;;;9.15;1.13;;;9.40;99.90;;;;;;5038960;28;20045;-64
2023/01/06 08:21:07;;;;;;;7.05;0.60;;;9.20;99.90;;;;;;4990682;28;20153;-64
2023/01/06 08:23:33;;;;;;;4.90;0.40;;;9.30;99.90;;;;;;5020140;28;20049;-64
2023/01/06 08:26:09;;;;;;;2.70;0.25;;;9.10;99.90;;;;;;5021319;28;20071;-65
2023/01/06 08:28:35;;;;;;;3.70;0.30;;;8.80;99.90;;;;;;5019495;28;20041;-64
2023/01/06 08:31:01;;;;;;;2.22;0.10;;;8.80;99.90;;;;;;5021627;28;20293;-65
2023/01/06 08:33:27;;;;;;;3.97;0.20;;;8.90;99.90;;;;;;5019176;28;20102;-66
2023/01/06 08:36:05;;;;;;;3.35;0.20;;;8.80;99.90;;;;;;5038924;28;20631;-64
2023/01/06 08:38:32;;;;;;;2.78;0.13;;;8.50;99.90;;;;;;5020698;28;20079;-63
2023/01/06 08:40:58;;;;;;;3.03;0.20;;;8.50;99.90;;;;;;5039982;28;20503;-63
2023/01/06 08:43:25;;;;;;;1.35;0.10;;;8.40;99.90;;;;;;4988890;28;20489;-63
2023/01/06 08:45:51;;;;;;;3.63;0.10;;;8.40;99.90;;;;;;5020891;28;20081;-65
2023/01/06 08:48:17;;;;;;;2.33;0.10;;;8.20;99.90;;;;;;5020182;28;20091;-66
2023/01/06 08:50:43;;;;;;;1.30;0.10;;;8.20;99.90;;;;;;5021045;28;20048;-64
2023/01/06 08:53:09;;;;;;;5.40;0.20;;;8.00;99.90;;;;;;5021756;28;20036;-64
2023/01/06 08:55:39;;;;;;;4.20;0.10;;;8.20;99.90;;;;;;5039553;28;20029;-64
2023/01/06 08:58:05;;;;;;;7.35;0.63;;;8.00;99.90;;;;;;5004685;28;20049;-64
2023/01/06 09:00:39;;;;;;;4.82;0.20;;;8.10;99.90;;;;;;5019862;28;20041;-64
2023/01/06 09:03:05;;;;;;;2.80;0.30;;;8.10;99.90;;;;;;5003228;28;20307;-64
2023/01/06 09:05:31;;;;;;;3.30;0.30;;;8.00;99.90;;;;;;5039967;28;20515;-64
2023/01/06 09:07:57;;;;;;;4.18;0.20;;;7.90;99.90;;;;;;5020794;28;20045;-64
2023/01/06 09:10:23;;;;;;;5.53;0.20;;;7.90;99.90;;;;;;5038628;28;20404;-63
2023/01/06 09:12:49;;;;;;;5.55;0.20;;;8.10;99.90;;;;;;5020599;28;20205;-63
2023/01/06 09:15:15;;;;;;;4.72;0.30;;;8.00;99.90;;;;;;5019940;28;20033;-63
2023/01/06 09:17:41;;;;;;;5.20;0.25;;;8.00;99.90;;;;;;5018874;28;20716;-63
2023/01/06 09:20:07;;;;;;;6.18;0.32;;;8.00;99.90;;;;;;5037818;28;20452;-63
2023/01/06 09:22:33;;;;;;;8.80;0.50;;;7.90;99.90;;;;;;5020579;28;20251;-65
2023/01/06 09:24:59;;;;;;;6.93;0.47;;;8.00;99.90;;;;;;5021305;28;20096;-63
2023/01/06 09:27:25;;;;;;;6.43;0.30;;;8.00;99.90;;;;;;5021710;28;20056;-65
2023/01/06 09:29:50;;;;;;;5.85;0.65;;;8.20;99.90;;;;;;5010400;28;20359;-64
2023/01/06 09:32:16;;;;;;;8.40;0.40;;;8.10;99.90;;;;;;5041168;28;20052;-63
2023/01/06 09:34:41;;;;;;;6.13;0.32;;;8.20;99.90;;;;;;5041453;28;20041;-63
2023/01/06 09:37:08;;;;;;;9.32;0.75;;;8.30;99.90;;;;;;5042022;28;20041;-64
2023/01/06 09:39:33;;;;;;;7.53;0.35;;;8.40;99.90;;;;;;4990183;28;20132;-64
2023/01/06 09:42:08;;;;;;;8.60;0.50;;;8.30;99.90;;;;;;5006944;28;20198;-64
2023/01/06 09:44:54;;;;;;;6.05;0.52;;;8.40;95.70;;;;;;5039239;28;20084;-64
2023/01/06 09:47:24;;;;;;;7.13;0.88;;;8.30;99.90;;;;;;5040452;28;20144;-64
2023/01/06 09:50:07;;;;;;;6.72;0.40;;;8.30;65.10;;;;;;5022219;28;20041;-63
2023/01/06 09:52:59;;;;;;;6.55;0.50;;;8.40;99.90;;;;;;5038748;28;20044;-64
2023/01/06 09:55:25;;;;;;;10.80;0.55;;;8.50;99.90;;;;;;5039783;28;20037;-66
2023/01/06 09:57:56;;;;;;;12.57;0.70;;;8.50;99.90;;;;;;5055970;28;20049;-63
2023/01/06 10:00:43;;;;;;;7.63;0.50;;;8.60;99.90;;;;;;5022489;28;20045;-64
2023/01/06 10:03:18;;;;;;;8.55;0.40;;;8.60;37.80;;;;;;5040796;28;20094;-64
2023/01/06 10:05:55;;;;;;;9.20;0.68;;;8.70;1.00;;;;;;5006123;28;20052;-64
2023/01/06 10:08:44;;;;;;;9.10;0.80;;;8.80;1.00;;;;;;5022326;28;20052;-63
2023/01/06 10:11:14;;;;;;;11.88;0.85;;;8.90;99.90;;;;;;5022889;28;20406;-62
2023/01/06 10:13:52;;;;;;;11.18;0.75;;;9.00;99.90;;;;;;5043131;28;20044;-63
2023/01/06 10:16:18;;;;;;;6.35;0.60;;;9.20;59.00;;;;;;4993765;28;20392;-63
2023/01/06 10:19:13;;;;;;;13.63;1.10;;;9.30;1.00;;;;;;5024716;28;20056;-63
2023/01/06 10:21:45;;;;;;;7.47;0.57;;;9.50;99.70;;;;;;5043281;28;20083;-64
2023/01/06 10:24:10;;;;;;;8.20;0.65;;;9.90;6.20;;;;;;5006687;28;20049;-65
2023/01/06 10:26:36;;;;;;;9.77;0.57;;;10.30;1.00;;;;;;5037059;28;20064;-64
2023/01/06 10:29:16;;;;;;;9.57;0.80;;;10.60;99.90;;;;;;5023099;28;20044;-65
2023/01/06 10:31:47;;;;;;;8.43;0.50;;;10.90;1.00;;;;;;5023215;28;20422;-65
2023/01/06 10:34:25;;;;;;;8.55;0.60;;;10.80;99.90;;;;;;5040413;28;20045;-65
2023/01/06 10:37:15;;;;;;;5.68;0.60;;;11.00;99.90;;;;;;5040318;28;20032;-65
2023/01/06 10:39:43;;;;;;;6.40;0.55;;;11.30;99.90;;;;;;5011514;28;20044;-64
2023/01/06 10:45:17;;;;;;;6.82;0.70;;;11.60;99.90;;;;;;5025568;28;20106;-62
2023/01/06 10:47:44;;;;;;;12.77;0.63;;;11.50;77.50;;;;;;5043652;28;20045;-64
2023/01/06 10:50:15;;;;;;;8.63;0.90;;;11.70;99.90;;;;;;5043256;28;20044;-62
2023/01/06 10:52:43;;;;;;;7.20;0.85;;;11.60;99.90;;;;;;5008926;28;20120;-64
2023/01/06 10:55:25;;;;;;;14.35;1.13;;;11.90;99.90;;;;;;5025549;28;20507;-63
2023/01/06 10:57:53;;;;;;;12.43;0.80;;;11.90;1.00;;;;;;5025662;28;20402;-63
2023/01/06 11:00:22;;;;;;;12.23;1.02;;;12.10;95.80;;;;;;5040547;28;20037;-63
2023/01/06 11:03:02;;;;;;;7.47;0.65;;;12.20;99.90;;;;;;5038407;28;20049;-63
2023/01/06 11:05:32;;;;;;;10.80;0.98;;;11.90;1.00;;;;;;5022908;28;20072;-63
2023/01/06 11:08:12;;;;;;;10.35;0.60;;;11.90;1.00;;;;;;5008051;28;20056;-64
2023/01/06 11:10:59;;;;;;;10.95;0.82;;;11.90;99.90;;;;;;5023814;28;20106;-63
2023/01/06 11:13:30;;;;;;;11.40;0.70;;;11.90;1.00;;;;;;5023532;28;20049;-64
2023/01/06 11:15:57;;;;;;;8.18;0.63;;;12.00;1.00;;;;;;5022325;28;20039;-63
2023/01/06 11:18:36;;;;;;;9.02;0.82;;;12.20;1.00;;;;;;5023935;28;20071;-65
2023/01/06 11:21:15;;;;;;;8.70;0.77;;;12.00;99.90;;;;;;5023149;28;20048;-65
2023/01/06 11:23:43;;;;;;;11.63;0.80;;;12.10;1.00;;;;;;5023616;28;20048;-65
2023/01/06 11:26:16;;;;;;;8.65;0.80;;;12.10;1.00;;;;;;5023227;28;20048;-65
2023/01/06 11:28:44;;;;;;;8.52;0.60;;;12.40;99.90;;;;;;5022891;28;20041;-63
2023/01/06 11:31:12;;;;;;;8.25;0.88;;;12.50;99.90;;;;;;5040759;28;20049;-65
2023/01/06 11:33:53;;;;;;;8.85;0.77;;;12.60;99.90;;;;;;5006763;28;20032;-65
2023/01/06 11:36:21;;;;;;;13.95;0.90;;;12.50;99.90;;;;;;5025093;28;20234;-65
2023/01/06 11:38:49;;;;;;;8.07;0.50;;;12.10;99.90;;;;;;5043380;28;20049;-65
2023/01/06 11:41:23;;;;;;;3.55;0.40;;;12.10;99.90;;;;;;5025047;28;20051;-64
2023/01/06 11:44:16;;;;;;;6.90;0.60;;;11.90;99.90;;;;;;5043715;28;20532;-66
2023/01/06 11:46:49;;;;;;;5.78;0.50;;;12.00;99.90;;;;;;5023025;28;20564;-63
2023/01/06 11:49:33;;;;;;;7.75;0.70;;;12.00;99.90;;;;;;5025017;28;20541;-65
2023/01/06 11:52:03;;;;;;;9.43;0.80;;;11.70;99.90;;;;;;5024549;28;20459;-64
2023/01/06 11:54:31;;;;;;;10.18;0.90;;;11.90;99.90;;;;;;5024811;28;20476;-65
2023/01/06 11:57:20;;;;;;;11.48;0.90;;;12.20;99.90;;;;;;5043152;28;20044;-65
2023/01/06 11:59:55;;;;;;;8.57;0.73;;;11.50;99.90;;;;;;5041907;28;20043;-66
2023/01/06 12:02:36;;;;;;;7.93;0.40;;;10.80;1.00;;;;;;5024390;28;20051;-65
2023/01/06 12:05:05;;;;;;;14.57;1.10;;;10.50;99.90;;;;;;5008175;28;20045;-65
2023/01/06 12:07:45;;;;;;;11.10;0.60;;;10.40;1.00;;;;;;5024336;28;20392;-62
2023/01/06 12:10:31;;;;;;;8.15;0.70;;;10.20;1.00;;;;;;5024768;28;20041;-62
2023/01/06 12:12:57;;;;;;;12.88;1.17;;;10.20;1.00;;;;;;5024798;28;20083;-63
2023/01/06 12:15:26;;;;;;;10.23;0.70;;;10.10;1.00;;;;;;5043211;28;20757;-63
2023/01/06 12:18:06;;;;;;;9.10;0.88;;;10.10;1.00;;;;;;5042393;28;20410;-63
2023/01/06 12:20:36;;;;;;;10.73;0.93;;;10.10;1.00;;;;;;5041965;28;20044;-65
2023/01/06 12:23:38;;;;;;;11.30;1.08;;;10.20;1.00;;;;;;5024169;28;20604;-65
2023/01/06 12:26:14;;;;;;;13.15;0.88;;;10.20;1.00;;;;;;5042397;28;20049;-63
2023/01/06 12:28:42;;;;;;;9.05;0.82;;;10.30;1.00;;;;;;5024131;28;20048;-64
2023/01/06 12:31:29;;;;;;;9.40;0.68;;;10.40;1.00;;;;;;5023338;28;20139;-63
2023/01/06 12:34:09;;;;;;;8.38;1.10;;;10.30;1.00;;;;;;5042230;28;20131;-64
2023/01/06 12:36:53;;;;;;;12.60;1.00;;;10.50;1.00;;;;;;5021644;28;20277;-64
2023/01/06 12:39:32;;;;;;;10.07;0.80;;;10.40;1.00;;;;;;5056919;28;20102;-64
2023/01/06 12:42:09;;;;;;;12.32;1.10;;;10.20;1.00;;;;;;5042203;28;20484;-65
2023/01/06 12:44:53;;;;;;;10.60;1.23;;;10.00;1.00;;;;;;5023901;28;20538;-64
2023/01/06 12:47:44;;;;;;;8.35;0.52;;;9.80;1.00;;;;;;5024039;28;20562;-62
2023/01/06 12:50:19;;;;;;;12.27;0.85;;;9.80;1.00;;;;;;5041481;28;20039;-62
2023/01/06 12:52:51;;;;;;;12.57;1.48;;;10.00;1.00;;;;;;5023900;28;20048;-62
2023/01/06 12:56:13;;;;;;;10.65;0.63;;;10.00;1.00;;;;;;5023902;28;20052;-66
2023/01/06 12:58:49;;;;;;;9.15;0.85;;;9.90;1.00;;;;;;4943689;28;20471;-65
2023/01/06 13:01:32;;;;;;;15.13;1.63;;;9.90;1.00;;;;;;4943383;28;20493;-65
2023/01/06 13:03:58;;;;;;;;;;;9.90;1.00;;;;;;5006179;28;20441;-63
2023/01/06 13:06:56;;;;;;;13.50;0.98;;;9.80;1.00;;;;;;5042067;28;19921;-64
2023/01/06 13:10:02;;;;;;;11.63;1.08;;;9.80;1.00;;;;;;4980753;28;20503;-62
2023/01/06 13:12:51;;;;;;;10.35;0.95;;;9.90;1.00;;;;;;5040601;28;21123;-63